sensor_id;sensor_type;location;lat;lon;timestamp;P1;durP1;ratioP1;P2;durP2;ratioP2
25359;SDS011;13311;51.386;0.016;2022-08-19T00:03:04;4.20;;;1.75;;
25359;SDS011;13311;51.386;0.016;2022-08-19T00:08:06;3.05;;;2.05;;
25359;SDS011;13311;51.386;0.016;2022-08-19T00:13:07;3.00;;;1.90;;
25359;SDS011;13311;51.386;0.016;2022-08-19T00:18:08;5.28;;;2.03;;
25359;SDS011;13311;51.386;0.016;2022-08-19T00:23:08;3.58;;;2.00;;
25359;SDS011;13311;51.386;0.016;2022-08-19T00:28:10;5.00;;;2.25;;
25359;SDS011;13311;51.386;0.016;2022-08-19T00:33:11;3.85;;;2.35;;
25359;SDS011;13311;51.386;0.016;2022-08-19T00:38:11;4.22;;;2.90;;
25359;SDS011;13311;51.386;0.016;2022-08-19T00:43:12;4.38;;;1.90;;
25359;SDS011;13311;51.386;0.016;2022-08-19T00:48:19;3.85;;;1.77;;
25359;SDS011;13311;51.386;0.016;2022-08-19T00:53:22;1.92;;;1.40;;
25359;SDS011;13311;51.386;0.016;2022-08-19T00:58:27;3.45;;;1.63;;
25359;SDS011;13311;51.386;0.016;2022-08-19T01:03:32;3.55;;;1.80;;
25359;SDS011;13311;51.386;0.016;2022-08-19T01:08:33;4.28;;;2.03;;
25359;SDS011;13311;51.386;0.016;2022-08-19T01:13:34;2.83;;;1.90;;
25359;SDS011;13311;51.386;0.016;2022-08-19T01:18:38;2.92;;;2.17;;
25359;SDS011;13311;51.386;0.016;2022-08-19T01:23:42;4.13;;;2.35;;
25359;SDS011;13311;51.386;0.016;2022-08-19T01:28:44;4.82;;;2.53;;
25359;SDS011;13311;51.386;0.016;2022-08-19T01:33:48;4.22;;;2.47;;
25359;SDS011;13311;51.386;0.016;2022-08-19T01:38:52;4.28;;;2.53;;
25359;SDS011;13311;51.386;0.016;2022-08-19T01:43:54;4.78;;;3.22;;
25359;SDS011;13311;51.386;0.016;2022-08-19T01:48:56;5.82;;;3.25;;
25359;SDS011;13311;51.386;0.016;2022-08-19T01:53:57;7.20;;;3.97;;
25359;SDS011;13311;51.386;0.016;2022-08-19T01:59:00;5.72;;;3.55;;
25359;SDS011;13311;51.386;0.016;2022-08-19T02:04:09;5.88;;;3.47;;
25359;SDS011;13311;51.386;0.016;2022-08-19T02:09:10;7.28;;;4.25;;
25359;SDS011;13311;51.386;0.016;2022-08-19T02:14:11;9.60;;;4.78;;
25359;SDS011;13311;51.386;0.016;2022-08-19T02:19:12;9.07;;;3.95;;
25359;SDS011;13311;51.386;0.016;2022-08-19T02:24:13;5.15;;;4.10;;
25359;SDS011;13311;51.386;0.016;2022-08-19T02:29:13;5.20;;;3.80;;
25359;SDS011;13311;51.386;0.016;2022-08-19T02:34:14;6.15;;;3.65;;
25359;SDS011;13311;51.386;0.016;2022-08-19T02:39:15;4.20;;;3.42;;
25359;SDS011;13311;51.386;0.016;2022-08-19T02:44:16;5.35;;;3.55;;
25359;SDS011;13311;51.386;0.016;2022-08-19T02:49:18;4.88;;;3.30;;
25359;SDS011;13311;51.386;0.016;2022-08-19T02:54:19;4.65;;;3.08;;
25359;SDS011;13311;51.386;0.016;2022-08-19T02:59:20;6.22;;;3.63;;
25359;SDS011;13311;51.386;0.016;2022-08-19T03:04:21;5.57;;;3.10;;
25359;SDS011;13311;51.386;0.016;2022-08-19T03:09:22;4.25;;;3.42;;
25359;SDS011;13311;51.386;0.016;2022-08-19T03:14:23;3.92;;;3.13;;
25359;SDS011;13311;51.386;0.016;2022-08-19T03:19:24;4.22;;;2.90;;
25359;SDS011;13311;51.386;0.016;2022-08-19T03:24:25;4.70;;;3.80;;
25359;SDS011;13311;51.386;0.016;2022-08-19T03:29:26;5.10;;;3.60;;
25359;SDS011;13311;51.386;0.016;2022-08-19T03:34:32;5.65;;;3.47;;
25359;SDS011;13311;51.386;0.016;2022-08-19T03:39:35;8.85;;;4.05;;
25359;SDS011;13311;51.386;0.016;2022-08-19T03:44:37;6.85;;;3.88;;
25359;SDS011;13311;51.386;0.016;2022-08-19T03:49:38;6.53;;;4.13;;
25359;SDS011;13311;51.386;0.016;2022-08-19T03:54:39;6.63;;;4.75;;
25359;SDS011;13311;51.386;0.016;2022-08-19T03:59:40;6.43;;;4.68;;
25359;SDS011;13311;51.386;0.016;2022-08-19T04:04:41;5.60;;;3.85;;
25359;SDS011;13311;51.386;0.016;2022-08-19T04:09:43;8.55;;;4.40;;
25359;SDS011;13311;51.386;0.016;2022-08-19T04:14:44;5.90;;;4.28;;
25359;SDS011;13311;51.386;0.016;2022-08-19T04:19:46;4.60;;;4.15;;
25359;SDS011;13311;51.386;0.016;2022-08-19T04:24:46;4.45;;;3.30;;
25359;SDS011;13311;51.386;0.016;2022-08-19T04:29:47;6.03;;;3.92;;
25359;SDS011;13311;51.386;0.016;2022-08-19T04:34:48;6.68;;;4.22;;
25359;SDS011;13311;51.386;0.016;2022-08-19T04:39:49;7.97;;;4.63;;
25359;SDS011;13311;51.386;0.016;2022-08-19T04:45:10;7.22;;;4.38;;
25359;SDS011;13311;51.386;0.016;2022-08-19T04:50:13;5.90;;;4.03;;
25359;SDS011;13311;51.386;0.016;2022-08-19T04:55:14;6.90;;;4.25;;
25359;SDS011;13311;51.386;0.016;2022-08-19T05:00:15;5.40;;;3.88;;
25359;SDS011;13311;51.386;0.016;2022-08-19T05:05:16;4.05;;;3.33;;
25359;SDS011;13311;51.386;0.016;2022-08-19T05:10:17;4.30;;;3.20;;
25359;SDS011;13311;51.386;0.016;2022-08-19T05:15:18;4.22;;;3.05;;
25359;SDS011;13311;51.386;0.016;2022-08-19T05:20:19;3.78;;;2.40;;
25359;SDS011;13311;51.386;0.016;2022-08-19T05:25:38;3.00;;;2.25;;
25359;SDS011;13311;51.386;0.016;2022-08-19T05:30:40;2.60;;;2.30;;
25359;SDS011;13311;51.386;0.016;2022-08-19T05:35:43;5.05;;;1.92;;
25359;SDS011;13311;51.386;0.016;2022-08-19T05:40:44;2.15;;;1.40;;
25359;SDS011;13311;51.386;0.016;2022-08-19T05:45:46;3.30;;;1.80;;
25359;SDS011;13311;51.386;0.016;2022-08-19T05:50:47;2.08;;;1.30;;
25359;SDS011;13311;51.386;0.016;2022-08-19T05:55:50;1.58;;;0.93;;
25359;SDS011;13311;51.386;0.016;2022-08-19T06:00:50;1.73;;;1.00;;
25359;SDS011;13311;51.386;0.016;2022-08-19T06:05:53;0.52;;;0.50;;
25359;SDS011;13311;51.386;0.016;2022-08-19T06:10:54;1.67;;;0.70;;
25359;SDS011;13311;51.386;0.016;2022-08-19T06:15:55;1.88;;;0.85;;
25359;SDS011;13311;51.386;0.016;2022-08-19T06:20:56;0.55;;;0.43;;
25359;SDS011;13311;51.386;0.016;2022-08-19T06:25:57;0.80;;;0.50;;
25359;SDS011;13311;51.386;0.016;2022-08-19T06:30:58;0.52;;;0.43;;
25359;SDS011;13311;51.386;0.016;2022-08-19T06:35:58;1.48;;;0.40;;
25359;SDS011;13311;51.386;0.016;2022-08-19T06:41:03;1.15;;;0.50;;
25359;SDS011;13311;51.386;0.016;2022-08-19T06:46:08;0.82;;;0.35;;
25359;SDS011;13311;51.386;0.016;2022-08-19T06:51:15;1.33;;;0.55;;
25359;SDS011;13311;51.386;0.016;2022-08-19T06:56:22;0.85;;;0.60;;
25359;SDS011;13311;51.386;0.016;2022-08-19T07:01:33;2.65;;;0.50;;
25359;SDS011;13311;51.386;0.016;2022-08-19T07:06:39;1.85;;;0.70;;
25359;SDS011;13311;51.386;0.016;2022-08-19T07:11:44;4.00;;;0.60;;
25359;SDS011;13311;51.386;0.016;2022-08-19T07:16:48;1.23;;;0.45;;
25359;SDS011;13311;51.386;0.016;2022-08-19T07:21:51;1.42;;;0.60;;
25359;SDS011;13311;51.386;0.016;2022-08-19T07:26:55;4.05;;;0.98;;
25359;SDS011;13311;51.386;0.016;2022-08-19T07:32:01;1.38;;;0.73;;
25359;SDS011;13311;51.386;0.016;2022-08-19T07:37:04;2.13;;;0.80;;
25359;SDS011;13311;51.386;0.016;2022-08-19T07:42:09;2.13;;;0.40;;
25359;SDS011;13311;51.386;0.016;2022-08-19T07:47:10;1.10;;;0.35;;
25359;SDS011;13311;51.386;0.016;2022-08-19T07:52:12;1.77;;;0.95;;
25359;SDS011;13311;51.386;0.016;2022-08-19T07:57:13;1.50;;;0.60;;
25359;SDS011;13311;51.386;0.016;2022-08-19T08:02:14;0.95;;;0.55;;
25359;SDS011;13311;51.386;0.016;2022-08-19T08:07:15;1.65;;;0.50;;
25359;SDS011;13311;51.386;0.016;2022-08-19T08:12:37;0.95;;;0.45;;
25359;SDS011;13311;51.386;0.016;2022-08-19T08:17:41;0.47;;;0.40;;
25359;SDS011;13311;51.386;0.016;2022-08-19T08:22:44;1.17;;;0.40;;
25359;SDS011;13311;51.386;0.016;2022-08-19T08:28:04;0.90;;;0.60;;
25359;SDS011;13311;51.386;0.016;2022-08-19T08:33:07;1.70;;;0.65;;
25359;SDS011;13311;51.386;0.016;2022-08-19T08:38:08;1.63;;;0.60;;
25359;SDS011;13311;51.386;0.016;2022-08-19T08:48:44;2.33;;;0.40;;
25359;SDS011;13311;51.386;0.016;2022-08-19T08:53:47;1.15;;;0.40;;
25359;SDS011;13311;51.386;0.016;2022-08-19T08:58:56;0.70;;;0.50;;
25359;SDS011;13311;51.386;0.016;2022-08-19T09:04:07;0.70;;;0.40;;
25359;SDS011;13311;51.386;0.016;2022-08-19T09:09:14;2.60;;;1.17;;
25359;SDS011;13311;51.386;0.016;2022-08-19T09:20:20;1.65;;;0.93;;
25359;SDS011;13311;51.386;0.016;2022-08-19T09:25:23;1.67;;;0.60;;
25359;SDS011;13311;51.386;0.016;2022-08-19T09:30:27;1.42;;;0.63;;
25359;SDS011;13311;51.386;0.016;2022-08-19T09:35:31;3.60;;;0.70;;
25359;SDS011;13311;51.386;0.016;2022-08-19T09:40:33;1.77;;;0.45;;
25359;SDS011;13311;51.386;0.016;2022-08-19T09:45:33;2.00;;;0.95;;
25359;SDS011;13311;51.386;0.016;2022-08-19T09:50:34;1.33;;;0.70;;
25359;SDS011;13311;51.386;0.016;2022-08-19T09:55:41;0.95;;;0.65;;
25359;SDS011;13311;51.386;0.016;2022-08-19T10:00:43;1.30;;;0.55;;
25359;SDS011;13311;51.386;0.016;2022-08-19T10:05:45;2.05;;;0.82;;
25359;SDS011;13311;51.386;0.016;2022-08-19T10:10:49;2.08;;;0.70;;
25359;SDS011;13311;51.386;0.016;2022-08-19T10:15:50;3.22;;;0.82;;
25359;SDS011;13311;51.386;0.016;2022-08-19T10:21:02;3.70;;;1.05;;
25359;SDS011;13311;51.386;0.016;2022-08-19T10:26:20;2.45;;;0.90;;
25359;SDS011;13311;51.386;0.016;2022-08-19T10:31:26;3.30;;;1.42;;
25359;SDS011;13311;51.386;0.016;2022-08-19T10:36:31;5.63;;;1.10;;
25359;SDS011;13311;51.386;0.016;2022-08-19T10:41:36;3.38;;;1.13;;
25359;SDS011;13311;51.386;0.016;2022-08-19T10:46:40;2.70;;;0.90;;
25359;SDS011;13311;51.386;0.016;2022-08-19T10:51:42;2.45;;;0.88;;
25359;SDS011;13311;51.386;0.016;2022-08-19T10:57:18;3.00;;;1.00;;
25359;SDS011;13311;51.386;0.016;2022-08-19T11:02:19;3.50;;;1.40;;
25359;SDS011;13311;51.386;0.016;2022-08-19T11:07:19;3.42;;;1.38;;
25359;SDS011;13311;51.386;0.016;2022-08-19T11:12:21;5.53;;;1.17;;
25359;SDS011;13311;51.386;0.016;2022-08-19T11:17:21;2.83;;;0.60;;
25359;SDS011;13311;51.386;0.016;2022-08-19T11:22:23;3.22;;;1.13;;
25359;SDS011;13311;51.386;0.016;2022-08-19T11:27:24;1.77;;;1.02;;
25359;SDS011;13311;51.386;0.016;2022-08-19T11:32:24;3.50;;;1.20;;
25359;SDS011;13311;51.386;0.016;2022-08-19T11:37:26;3.92;;;1.00;;
25359;SDS011;13311;51.386;0.016;2022-08-19T11:42:27;1.45;;;0.90;;
25359;SDS011;13311;51.386;0.016;2022-08-19T11:47:46;3.90;;;1.48;;
25359;SDS011;13311;51.386;0.016;2022-08-19T11:52:47;7.60;;;1.60;;
25359;SDS011;13311;51.386;0.016;2022-08-19T11:57:49;7.20;;;1.50;;
25359;SDS011;13311;51.386;0.016;2022-08-19T12:02:50;5.47;;;1.73;;
25359;SDS011;13311;51.386;0.016;2022-08-19T12:07:51;8.77;;;2.00;;
25359;SDS011;13311;51.386;0.016;2022-08-19T12:12:52;6.38;;;1.70;;
25359;SDS011;13311;51.386;0.016;2022-08-19T12:17:53;8.35;;;2.22;;
25359;SDS011;13311;51.386;0.016;2022-08-19T12:22:56;6.25;;;2.15;;
25359;SDS011;13311;51.386;0.016;2022-08-19T12:27:57;6.30;;;1.80;;
25359;SDS011;13311;51.386;0.016;2022-08-19T12:32:58;5.93;;;1.98;;
25359;SDS011;13311;51.386;0.016;2022-08-19T12:37:59;7.47;;;2.50;;
25359;SDS011;13311;51.386;0.016;2022-08-19T12:43:01;4.65;;;1.67;;
25359;SDS011;13311;51.386;0.016;2022-08-19T12:48:02;7.95;;;1.88;;
25359;SDS011;13311;51.386;0.016;2022-08-19T12:53:04;4.70;;;1.70;;
25359;SDS011;13311;51.386;0.016;2022-08-19T12:58:05;5.00;;;1.50;;
25359;SDS011;13311;51.386;0.016;2022-08-19T13:03:06;5.78;;;1.42;;
25359;SDS011;13311;51.386;0.016;2022-08-19T13:08:07;5.43;;;2.10;;
25359;SDS011;13311;51.386;0.016;2022-08-19T13:13:08;5.15;;;2.20;;
25359;SDS011;13311;51.386;0.016;2022-08-19T13:18:12;3.22;;;1.20;;
25359;SDS011;13311;51.386;0.016;2022-08-19T13:23:14;7.85;;;2.03;;
25359;SDS011;13311;51.386;0.016;2022-08-19T13:28:14;7.68;;;1.90;;
25359;SDS011;13311;51.386;0.016;2022-08-19T13:33:15;6.78;;;2.25;;
25359;SDS011;13311;51.386;0.016;2022-08-19T13:38:18;6.07;;;1.95;;
25359;SDS011;13311;51.386;0.016;2022-08-19T13:43:22;4.97;;;1.88;;
25359;SDS011;13311;51.386;0.016;2022-08-19T13:48:27;3.22;;;1.83;;
25359;SDS011;13311;51.386;0.016;2022-08-19T13:53:28;3.13;;;1.40;;
25359;SDS011;13311;51.386;0.016;2022-08-19T13:58:30;4.22;;;1.35;;
25359;SDS011;13311;51.386;0.016;2022-08-19T14:03:32;8.30;;;2.22;;
25359;SDS011;13311;51.386;0.016;2022-08-19T14:08:33;4.85;;;2.15;;
25359;SDS011;13311;51.386;0.016;2022-08-19T14:13:39;3.92;;;1.73;;
25359;SDS011;13311;51.386;0.016;2022-08-19T14:18:41;5.90;;;1.90;;
25359;SDS011;13311;51.386;0.016;2022-08-19T14:23:43;6.32;;;1.67;;
25359;SDS011;13311;51.386;0.016;2022-08-19T14:28:44;2.42;;;0.90;;
25359;SDS011;13311;51.386;0.016;2022-08-19T14:33:48;4.60;;;1.17;;
25359;SDS011;13311;51.386;0.016;2022-08-19T14:38:50;5.88;;;1.70;;
25359;SDS011;13311;51.386;0.016;2022-08-19T14:43:52;4.60;;;1.45;;
25359;SDS011;13311;51.386;0.016;2022-08-19T14:48:54;3.55;;;1.33;;
25359;SDS011;13311;51.386;0.016;2022-08-19T14:53:55;6.07;;;1.70;;
25359;SDS011;13311;51.386;0.016;2022-08-19T14:58:57;3.25;;;1.40;;
25359;SDS011;13311;51.386;0.016;2022-08-19T15:04:00;7.35;;;2.20;;
25359;SDS011;13311;51.386;0.016;2022-08-19T15:09:01;4.13;;;1.60;;
25359;SDS011;13311;51.386;0.016;2022-08-19T15:14:03;5.93;;;2.00;;
25359;SDS011;13311;51.386;0.016;2022-08-19T15:19:05;3.83;;;1.75;;
25359;SDS011;13311;51.386;0.016;2022-08-19T15:24:06;7.22;;;2.15;;
25359;SDS011;13311;51.386;0.016;2022-08-19T15:29:07;8.27;;;2.17;;
25359;SDS011;13311;51.386;0.016;2022-08-19T15:34:08;4.18;;;1.85;;
25359;SDS011;13311;51.386;0.016;2022-08-19T15:39:09;6.07;;;2.15;;
25359;SDS011;13311;51.386;0.016;2022-08-19T15:44:11;9.43;;;2.75;;
25359;SDS011;13311;51.386;0.016;2022-08-19T15:49:18;3.88;;;1.42;;
25359;SDS011;13311;51.386;0.016;2022-08-19T15:54:20;4.13;;;1.95;;
25359;SDS011;13311;51.386;0.016;2022-08-19T15:59:22;3.08;;;1.45;;
25359;SDS011;13311;51.386;0.016;2022-08-19T16:04:43;3.88;;;1.42;;
25359;SDS011;13311;51.386;0.016;2022-08-19T16:10:06;4.93;;;1.55;;
25359;SDS011;13311;51.386;0.016;2022-08-19T16:15:08;3.33;;;1.40;;
25359;SDS011;13311;51.386;0.016;2022-08-19T16:20:10;8.60;;;1.80;;
25359;SDS011;13311;51.386;0.016;2022-08-19T16:25:11;4.43;;;1.40;;
25359;SDS011;13311;51.386;0.016;2022-08-19T16:30:12;3.35;;;1.55;;
25359;SDS011;13311;51.386;0.016;2022-08-19T16:35:13;7.10;;;1.77;;
25359;SDS011;13311;51.386;0.016;2022-08-19T16:40:14;5.43;;;1.85;;
25359;SDS011;13311;51.386;0.016;2022-08-19T16:45:15;4.60;;;1.95;;
25359;SDS011;13311;51.386;0.016;2022-08-19T16:50:20;5.05;;;2.40;;
25359;SDS011;13311;51.386;0.016;2022-08-19T16:55:21;7.32;;;2.45;;
25359;SDS011;13311;51.386;0.016;2022-08-19T17:00:22;2.72;;;1.55;;
25359;SDS011;13311;51.386;0.016;2022-08-19T17:05:23;7.50;;;2.60;;
25359;SDS011;13311;51.386;0.016;2022-08-19T17:10:23;4.65;;;1.63;;
25359;SDS011;13311;51.386;0.016;2022-08-19T17:15:24;7.40;;;2.13;;
25359;SDS011;13311;51.386;0.016;2022-08-19T17:20:25;8.48;;;2.10;;
25359;SDS011;13311;51.386;0.016;2022-08-19T17:25:27;7.28;;;2.08;;
25359;SDS011;13311;51.386;0.016;2022-08-19T17:30:32;7.05;;;2.10;;
25359;SDS011;13311;51.386;0.016;2022-08-19T17:35:33;6.30;;;2.67;;
25359;SDS011;13311;51.386;0.016;2022-08-19T17:40:34;6.25;;;2.28;;
25359;SDS011;13311;51.386;0.016;2022-08-19T17:45:36;5.53;;;2.10;;
25359;SDS011;13311;51.386;0.016;2022-08-19T17:50:39;4.95;;;2.15;;
25359;SDS011;13311;51.386;0.016;2022-08-19T17:55:40;7.95;;;2.53;;
25359;SDS011;13311;51.386;0.016;2022-08-19T18:00:41;8.45;;;2.03;;
25359;SDS011;13311;51.386;0.016;2022-08-19T18:05:42;5.47;;;1.88;;
25359;SDS011;13311;51.386;0.016;2022-08-19T18:10:43;11.05;;;2.58;;
25359;SDS011;13311;51.386;0.016;2022-08-19T18:15:44;10.30;;;2.45;;
25359;SDS011;13311;51.386;0.016;2022-08-19T18:20:46;8.52;;;2.25;;
25359;SDS011;13311;51.386;0.016;2022-08-19T18:25:47;8.43;;;2.58;;
25359;SDS011;13311;51.386;0.016;2022-08-19T18:30:47;8.18;;;2.50;;
25359;SDS011;13311;51.386;0.016;2022-08-19T18:35:48;7.47;;;2.30;;
25359;SDS011;13311;51.386;0.016;2022-08-19T18:40:52;5.28;;;1.98;;
25359;SDS011;13311;51.386;0.016;2022-08-19T18:46:11;5.00;;;1.90;;
25359;SDS011;13311;51.386;0.016;2022-08-19T18:51:30;4.63;;;1.67;;
25359;SDS011;13311;51.386;0.016;2022-08-19T18:56:32;7.03;;;1.90;;
25359;SDS011;13311;51.386;0.016;2022-08-19T19:01:35;6.65;;;2.00;;
25359;SDS011;13311;51.386;0.016;2022-08-19T19:06:39;6.32;;;2.17;;
25359;SDS011;13311;51.386;0.016;2022-08-19T19:11:42;10.15;;;2.88;;
25359;SDS011;13311;51.386;0.016;2022-08-19T19:16:46;8.23;;;2.33;;
25359;SDS011;13311;51.386;0.016;2022-08-19T19:21:47;6.68;;;2.72;;
25359;SDS011;13311;51.386;0.016;2022-08-19T19:26:49;6.75;;;2.78;;
25359;SDS011;13311;51.386;0.016;2022-08-19T19:31:52;10.30;;;2.70;;
25359;SDS011;13311;51.386;0.016;2022-08-19T19:36:54;4.85;;;1.85;;
25359;SDS011;13311;51.386;0.016;2022-08-19T19:41:56;4.43;;;1.88;;
25359;SDS011;13311;51.386;0.016;2022-08-19T19:46:56;7.10;;;2.65;;
25359;SDS011;13311;51.386;0.016;2022-08-19T19:51:58;8.55;;;3.05;;
25359;SDS011;13311;51.386;0.016;2022-08-19T19:56:59;8.80;;;3.10;;
25359;SDS011;13311;51.386;0.016;2022-08-19T20:02:00;8.68;;;3.17;;
25359;SDS011;13311;51.386;0.016;2022-08-19T20:07:01;11.73;;;3.47;;
25359;SDS011;13311;51.386;0.016;2022-08-19T20:12:02;10.48;;;2.90;;
25359;SDS011;13311;51.386;0.016;2022-08-19T20:17:03;6.97;;;2.80;;
25359;SDS011;13311;51.386;0.016;2022-08-19T20:22:04;8.70;;;3.10;;
25359;SDS011;13311;51.386;0.016;2022-08-19T20:27:05;9.60;;;2.42;;
25359;SDS011;13311;51.386;0.016;2022-08-19T20:32:07;6.00;;;2.55;;
25359;SDS011;13311;51.386;0.016;2022-08-19T20:37:09;8.85;;;2.05;;
25359;SDS011;13311;51.386;0.016;2022-08-19T20:42:09;5.18;;;1.83;;
25359;SDS011;13311;51.386;0.016;2022-08-19T20:47:10;8.23;;;2.25;;
25359;SDS011;13311;51.386;0.016;2022-08-19T20:52:11;3.85;;;1.95;;
25359;SDS011;13311;51.386;0.016;2022-08-19T20:57:12;7.68;;;1.75;;
25359;SDS011;13311;51.386;0.016;2022-08-19T21:02:13;9.05;;;2.35;;
25359;SDS011;13311;51.386;0.016;2022-08-19T21:07:14;4.13;;;1.58;;
25359;SDS011;13311;51.386;0.016;2022-08-19T21:12:16;5.47;;;1.67;;
25359;SDS011;13311;51.386;0.016;2022-08-19T21:17:18;6.97;;;2.47;;
25359;SDS011;13311;51.386;0.016;2022-08-19T21:22:18;5.30;;;1.92;;
25359;SDS011;13311;51.386;0.016;2022-08-19T21:27:19;5.05;;;1.67;;
25359;SDS011;13311;51.386;0.016;2022-08-19T21:32:20;4.25;;;1.88;;
25359;SDS011;13311;51.386;0.016;2022-08-19T21:37:22;4.50;;;1.35;;
25359;SDS011;13311;51.386;0.016;2022-08-19T21:42:23;4.60;;;1.95;;
25359;SDS011;13311;51.386;0.016;2022-08-19T21:47:24;5.57;;;1.67;;
25359;SDS011;13311;51.386;0.016;2022-08-19T21:52:25;4.53;;;2.25;;
25359;SDS011;13311;51.386;0.016;2022-08-19T21:57:26;5.70;;;1.35;;
25359;SDS011;13311;51.386;0.016;2022-08-19T22:02:27;4.75;;;2.67;;
25359;SDS011;13311;51.386;0.016;2022-08-19T22:07:28;5.38;;;2.28;;
25359;SDS011;13311;51.386;0.016;2022-08-19T22:12:30;6.75;;;2.50;;
25359;SDS011;13311;51.386;0.016;2022-08-19T22:17:36;6.97;;;2.20;;
25359;SDS011;13311;51.386;0.016;2022-08-19T22:22:38;6.85;;;1.95;;
25359;SDS011;13311;51.386;0.016;2022-08-19T22:32:48;7.82;;;2.13;;
25359;SDS011;13311;51.386;0.016;2022-08-19T22:38:00;4.55;;;2.10;;
25359;SDS011;13311;51.386;0.016;2022-08-19T22:43:03;4.85;;;1.50;;
25359;SDS011;13311;51.386;0.016;2022-08-19T22:48:11;3.90;;;1.83;;
25359;SDS011;13311;51.386;0.016;2022-08-19T22:53:15;7.70;;;3.22;;
25359;SDS011;13311;51.386;0.016;2022-08-19T22:58:16;6.93;;;2.97;;
25359;SDS011;13311;51.386;0.016;2022-08-19T23:03:17;7.53;;;2.78;;
25359;SDS011;13311;51.386;0.016;2022-08-19T23:08:18;5.10;;;1.85;;
25359;SDS011;13311;51.386;0.016;2022-08-19T23:13:19;8.90;;;2.17;;
25359;SDS011;13311;51.386;0.016;2022-08-19T23:18:20;2.92;;;1.75;;
25359;SDS011;13311;51.386;0.016;2022-08-19T23:23:21;9.23;;;2.38;;
25359;SDS011;13311;51.386;0.016;2022-08-19T23:28:23;7.70;;;2.10;;
25359;SDS011;13311;51.386;0.016;2022-08-19T23:33:43;4.38;;;2.92;;
25359;SDS011;13311;51.386;0.016;2022-08-19T23:38:44;7.13;;;2.28;;
25359;SDS011;13311;51.386;0.016;2022-08-19T23:43:47;4.60;;;1.50;;
25359;SDS011;13311;51.386;0.016;2022-08-19T23:48:48;2.90;;;1.60;;
25359;SDS011;13311;51.386;0.016;2022-08-19T23:53:49;5.10;;;1.98;;
25359;SDS011;13311;51.386;0.016;2022-08-19T23:58:50;4.93;;;1.65;;
